createdAt,value
2018-12-10T00:00:20.160Z,73.90
2018-12-10T00:03:52.182Z,75.43
2018-12-10T00:06:21.289Z,75.59
2018-12-10T00:08:50.608Z,75.74
2018-12-10T00:11:19.668Z,74.94
2018-12-10T00:13:48.900Z,74.49
2018-12-10T00:16:18.149Z,75.35
2018-12-10T00:18:47.401Z,75.27
2018-12-10T00:21:16.563Z,77.17
2018-12-10T00:23:45.943Z,77.07
2018-12-10T00:26:15.071Z,76.50
2018-12-10T00:28:44.313Z,77.20
2018-12-10T00:31:13.559Z,75.79
2018-12-10T00:33:42.805Z,73.95
2018-12-10T00:36:11.929Z,74.72
2018-12-10T00:38:42.791Z,75.10
2018-12-10T00:41:11.695Z,72.54
2018-12-10T00:43:40.658Z,73.21
2018-12-10T00:46:09.582Z,72.90
2018-12-10T00:48:38.509Z,72.76
2018-12-10T00:51:07.412Z,73.87
2018-12-10T00:53:36.342Z,74.20
2018-12-10T00:56:05.240Z,75.77
2018-12-10T00:58:34.168Z,75.61
2018-12-10T01:01:03.066Z,75.30
2018-12-10T01:03:31.972Z,75.17
2018-12-10T01:06:00.855Z,75.83
2018-12-10T01:08:29.817Z,75.63
2018-12-10T01:10:58.680Z,75.38
2018-12-10T01:13:27.761Z,77.47
2018-12-10T01:15:56.663Z,77.79
2018-12-10T01:21:07.773Z,75.81
2018-12-10T01:23:36.732Z,77.13
2018-12-10T01:26:05.673Z,76.76
2018-12-10T01:28:34.671Z,77.38
2018-12-10T01:31:03.595Z,76.43
2018-12-10T01:33:32.586Z,76.02
2018-12-10T01:36:01.532Z,75.35
2018-12-10T01:38:30.462Z,73.03
2018-12-10T01:40:59.431Z,74.37
2018-12-10T01:43:28.391Z,74.27
2018-12-10T01:45:57.364Z,75.54
2018-12-10T01:48:26.275Z,75.35
2018-12-10T01:50:55.290Z,74.25
2018-12-10T01:53:24.239Z,74.31
2018-12-10T01:55:53.199Z,74.94
2018-12-10T01:58:22.100Z,74.54
2018-12-10T02:00:51.063Z,73.64
2018-12-10T02:03:19.999Z,74.00
2018-12-10T02:05:49.030Z,73.94
2018-12-10T02:08:17.959Z,72.76
2018-12-10T02:10:46.931Z,72.96
2018-12-10T02:13:15.853Z,71.80
2018-12-10T02:15:44.824Z,72.20
2018-12-10T02:18:13.725Z,73.38
2018-12-10T02:20:42.731Z,72.32
2018-12-10T02:23:11.635Z,71.50
2018-12-10T02:25:40.613Z,71.39
2018-12-10T02:28:09.541Z,72.42
2018-12-10T02:30:38.485Z,72.32
2018-12-10T02:33:07.382Z,71.08
2018-12-10T02:35:36.319Z,69.56
2018-12-10T02:38:05.235Z,70.13
2018-12-10T02:40:34.259Z,70.86
2018-12-10T02:43:03.156Z,69.23
2018-12-10T02:45:32.099Z,68.46
2018-12-10T02:48:01.089Z,68.90
2018-12-10T02:50:30.031Z,68.97
2018-12-10T02:52:58.969Z,69.89
2018-12-10T02:55:27.912Z,69.43
2018-12-10T02:57:56.898Z,69.38
2018-12-10T03:00:25.880Z,68.41
2018-12-10T03:02:54.827Z,68.86
2018-12-10T03:05:23.741Z,67.35
2018-12-10T03:07:52.695Z,68.44
2018-12-10T03:10:21.661Z,67.00
2018-12-10T03:12:50.653Z,68.05
2018-12-10T03:15:19.599Z,67.71
2018-12-10T03:17:48.552Z,68.48
2018-12-10T03:20:17.528Z,69.59
2018-12-10T03:22:46.522Z,70.37
2018-12-10T03:25:15.456Z,69.30
2018-12-10T03:27:44.624Z,70.22
2018-12-10T03:30:13.590Z,72.06
2018-12-10T03:32:42.784Z,70.94
2018-12-10T03:35:11.813Z,71.25
2018-12-10T03:37:40.785Z,70.62
2018-12-10T03:40:09.745Z,70.00
2018-12-10T03:42:38.739Z,68.61
2018-12-10T03:45:07.641Z,67.72
2018-12-10T03:47:36.619Z,67.95
2018-12-10T03:50:07.009Z,68.17
2018-12-10T03:52:36.042Z,67.97
2018-12-10T03:55:04.987Z,69.06
2018-12-10T03:57:33.947Z,68.57
2018-12-10T04:00:02.930Z,67.68
2018-12-10T04:02:31.851Z,68.32
2018-12-10T04:05:00.951Z,68.39
2018-12-10T04:07:29.883Z,66.49
2018-12-10T04:09:58.860Z,66.65
2018-12-10T04:12:27.839Z,66.96
2018-12-10T04:14:56.797Z,67.19
2018-12-10T04:17:25.704Z,66.66
2018-12-10T04:19:54.657Z,67.93
2018-12-10T04:22:23.564Z,67.12
2018-12-10T04:24:52.526Z,66.42
2018-12-10T04:27:21.458Z,66.84
2018-12-10T04:29:50.404Z,68.55
2018-12-10T04:32:19.344Z,67.92
2018-12-10T04:34:48.641Z,68.60
2018-12-10T04:37:17.552Z,68.83
2018-12-10T04:39:46.481Z,67.80
2018-12-10T04:42:15.387Z,68.81
2018-12-10T04:44:44.361Z,68.50
2018-12-10T04:47:13.283Z,68.00
2018-12-10T04:49:42.238Z,66.56
2018-12-10T04:52:11.171Z,66.90
2018-12-10T04:54:40.133Z,67.11
2018-12-10T04:57:09.042Z,67.07
2018-12-10T04:59:38.005Z,67.30
2018-12-10T05:02:06.911Z,66.71
2018-12-10T05:04:35.872Z,65.62
2018-12-10T05:07:04.775Z,65.67
2018-12-10T05:09:33.792Z,66.45
2018-12-10T05:12:02.720Z,68.87
2018-12-10T05:14:31.639Z,70.22
2018-12-10T05:17:00.611Z,70.79
2018-12-10T05:19:29.541Z,71.65
2018-12-10T05:21:58.532Z,71.40
2018-12-10T05:24:27.453Z,70.02
2018-12-10T05:26:56.381Z,71.68
2018-12-10T05:29:25.280Z,70.93
2018-12-10T05:31:54.251Z,72.34
2018-12-10T05:34:23.168Z,70.34
2018-12-10T05:36:52.171Z,69.71
2018-12-10T05:39:21.089Z,68.84
2018-12-10T05:41:50.057Z,71.92
2018-12-10T05:44:18.965Z,72.46
2018-12-10T05:46:47.991Z,71.92
2018-12-10T05:49:17.035Z,70.90
2018-12-10T05:51:45.989Z,71.31
2018-12-10T05:54:14.917Z,69.10
2018-12-10T05:56:43.933Z,69.46
2018-12-10T05:59:12.872Z,72.05
2018-12-10T06:01:41.834Z,70.39
2018-12-10T06:04:10.772Z,70.41
2018-12-10T06:06:39.752Z,69.66
2018-12-10T06:09:08.871Z,68.32
2018-12-10T06:11:37.864Z,68.38
2018-12-10T06:14:06.768Z,67.29
2018-12-10T06:16:35.759Z,68.57
2018-12-10T06:19:04.920Z,69.00
2018-12-10T06:21:34.199Z,67.67
2018-12-10T06:24:03.323Z,68.20
2018-12-10T06:26:32.539Z,67.23
2018-12-10T06:29:01.491Z,67.36
2018-12-10T06:31:30.493Z,68.00
2018-12-10T06:33:59.437Z,68.79
2018-12-10T06:36:28.382Z,66.25
2018-12-10T06:38:57.463Z,67.26
2018-12-10T06:41:26.403Z,66.95
2018-12-10T06:43:55.398Z,68.81
2018-12-10T06:46:24.315Z,71.68
2018-12-10T06:48:53.244Z,72.85
2018-12-10T06:51:22.169Z,72.80
2018-12-10T06:53:51.125Z,76.18
2018-12-10T06:56:20.054Z,74.77
2018-12-10T06:58:49.011Z,77.55
2018-12-10T07:01:17.936Z,77.76
2018-12-10T07:03:50.974Z,78.74
2018-12-10T07:06:19.932Z,79.36
2018-12-10T07:08:48.917Z,80.13
2018-12-10T07:11:17.869Z,81.66
2018-12-10T07:13:46.856Z,81.28
2018-12-10T07:16:15.767Z,80.93
2018-12-10T07:18:44.703Z,78.30
2018-12-10T07:21:13.624Z,77.09
2018-12-10T07:23:42.936Z,75.79
2018-12-10T07:26:12.067Z,76.12
2018-12-10T07:28:41.042Z,75.41
2018-12-10T07:31:10.015Z,74.99
2018-12-10T07:33:38.955Z,76.12
2018-12-10T07:36:08.071Z,76.35
2018-12-10T07:38:37.034Z,76.25
2018-12-10T07:41:06.545Z,74.46
2018-12-10T07:43:35.807Z,74.98
2018-12-10T07:46:04.771Z,73.56
2018-12-10T07:48:33.772Z,74.00
2018-12-10T07:51:02.977Z,73.77
2018-12-10T07:53:31.964Z,73.59
2018-12-10T07:56:00.933Z,73.35
2018-12-10T07:58:29.940Z,72.64
2018-12-10T08:00:58.935Z,73.02
2018-12-10T08:03:28.352Z,71.17
2018-12-10T08:05:57.384Z,72.40
2018-12-10T08:08:26.548Z,70.74
2018-12-10T08:10:55.523Z,70.95
2018-12-10T08:13:24.467Z,69.84
2018-12-10T08:15:53.448Z,69.57
2018-12-10T08:18:22.374Z,71.32
2018-12-10T08:20:51.717Z,71.92
2018-12-10T08:23:20.628Z,73.61
2018-12-10T08:25:50.256Z,71.98
2018-12-10T08:28:19.165Z,73.03
2018-12-10T08:30:48.266Z,72.38
2018-12-10T08:33:17.203Z,73.59
2018-12-10T08:35:46.184Z,73.96
2018-12-10T08:38:15.097Z,71.54
2018-12-10T08:40:44.061Z,71.27
2018-12-10T08:43:12.994Z,70.61
2018-12-10T08:45:42.013Z,70.36
2018-12-10T08:48:11.232Z,68.76
2018-12-10T08:50:40.234Z,69.75
2018-12-10T08:53:09.163Z,70.25
2018-12-10T08:55:38.123Z,69.17
2018-12-10T08:58:07.033Z,66.87
2018-12-10T09:00:36.016Z,66.67
2018-12-10T09:03:05.059Z,66.11
2018-12-10T09:05:34.020Z,67.20
2018-12-10T09:08:03.456Z,67.31
2018-12-10T09:10:34.707Z,67.64
2018-12-10T09:13:04.069Z,67.89
2018-12-10T09:15:33.162Z,67.56
2018-12-10T09:18:02.288Z,68.65
2018-12-10T09:20:31.305Z,68.53
2018-12-10T09:23:00.798Z,68.13
2018-12-10T09:25:29.801Z,66.90
2018-12-10T09:27:59.067Z,67.34
2018-12-10T09:30:28.651Z,67.31
2018-12-10T09:32:58.947Z,66.04
2018-12-10T09:35:28.061Z,67.69
2018-12-10T09:37:57.633Z,68.95
2018-12-10T09:40:26.963Z,67.06
2018-12-10T09:42:56.188Z,67.18
2018-12-10T09:45:25.182Z,67.57
2018-12-10T09:47:54.227Z,68.46
2018-12-10T09:50:23.142Z,66.41
2018-12-10T09:52:52.083Z,66.89
2018-12-10T09:55:20.984Z,67.01
2018-12-10T09:57:49.926Z,67.26
2018-12-10T10:00:18.843Z,68.42
2018-12-10T10:02:47.804Z,67.15
2018-12-10T10:05:16.693Z,67.38
2018-12-10T10:07:45.643Z,66.79
2018-12-10T10:10:14.572Z,65.65
2018-12-10T10:12:43.575Z,66.24
2018-12-10T10:15:12.517Z,65.73
2018-12-10T10:17:41.484Z,65.04
2018-12-10T10:20:10.456Z,64.59
2018-12-10T10:22:39.368Z,66.47
2018-12-10T10:25:08.316Z,67.03
2018-12-10T10:27:37.220Z,66.14
2018-12-10T10:30:06.427Z,67.54
2018-12-10T10:32:35.371Z,68.42
2018-12-10T10:35:04.360Z,68.83
2018-12-10T10:37:33.496Z,68.97
2018-12-10T10:40:04.523Z,68.99
2018-12-10T10:42:33.469Z,68.01
2018-12-10T10:45:02.422Z,67.10
2018-12-10T10:47:31.408Z,68.13
2018-12-10T10:50:00.336Z,67.70
2018-12-10T10:52:33.357Z,66.70
2018-12-10T10:55:00.263Z,65.44
2018-12-10T10:57:31.319Z,67.65
2018-12-10T11:00:00.222Z,68.66
2018-12-10T11:02:34.172Z,70.64
2018-12-10T11:05:03.123Z,69.82
2018-12-10T11:07:32.044Z,67.88
2018-12-10T11:10:01.027Z,65.33
2018-12-10T11:12:29.961Z,63.40
2018-12-10T11:14:58.877Z,58.48
2018-12-10T11:17:27.795Z,56.21
2018-12-10T11:19:57.773Z,57.80
2018-12-10T11:22:26.664Z,54.64
2018-12-10T11:24:55.588Z,57.49
2018-12-10T11:27:24.526Z,56.73
2018-12-10T11:29:53.559Z,57.85
2018-12-10T11:32:22.457Z,54.80
2018-12-10T11:34:51.473Z,53.74
2018-12-10T11:37:20.588Z,51.10
2018-12-10T11:39:49.498Z,50.93
2018-12-10T11:42:18.451Z,54.28
2018-12-10T11:44:48.333Z,54.41
2018-12-10T11:47:17.707Z,55.72
2018-12-10T11:49:46.671Z,55.16
2018-12-10T11:52:15.616Z,54.80
2018-12-10T11:54:44.539Z,53.90
2018-12-10T11:57:13.495Z,55.15
2018-12-10T11:59:42.411Z,57.73
2018-12-10T12:02:11.352Z,58.29
2018-12-10T12:04:40.277Z,59.78
2018-12-10T12:07:09.288Z,61.49
2018-12-10T12:09:38.297Z,63.79
2018-12-10T12:12:07.297Z,65.07
2018-12-10T12:14:36.239Z,64.74
2018-12-10T12:17:05.280Z,63.68
2018-12-10T12:19:34.823Z,63.56
2018-12-10T12:22:05.095Z,63.98
2018-12-10T12:24:34.348Z,61.88
2018-12-10T12:27:03.348Z,55.79
2018-12-10T12:29:32.486Z,55.45
2018-12-10T12:32:01.417Z,53.73
2018-12-10T12:34:30.907Z,54.65
2018-12-10T12:36:59.985Z,54.78
2018-12-10T12:39:28.887Z,53.10
2018-12-10T12:41:57.848Z,53.66
2018-12-10T12:44:26.795Z,53.39
2018-12-10T12:46:55.841Z,55.88
2018-12-10T12:49:24.743Z,55.52
2018-12-10T12:51:53.667Z,54.93
2018-12-10T12:54:22.688Z,52.17
2018-12-10T12:56:51.612Z,50.63
2018-12-10T12:59:20.499Z,49.76
2018-12-10T13:01:49.723Z,51.90
2018-12-10T13:04:18.767Z,52.61
2018-12-10T13:06:47.652Z,52.08
2018-12-10T13:09:21.719Z,53.23
2018-12-10T13:11:47.565Z,54.39
2018-12-10T13:14:16.523Z,54.15
2018-12-10T13:16:49.339Z,55.55
2018-12-10T13:19:16.375Z,54.78
2018-12-10T13:21:45.424Z,54.57
2018-12-10T13:24:14.416Z,55.49
2018-12-10T13:26:43.355Z,55.17
2018-12-10T13:29:12.418Z,55.89
2018-12-10T13:31:41.613Z,51.39
2018-12-10T13:34:10.628Z,50.37
2018-12-10T13:36:39.538Z,48.64
2018-12-10T13:39:08.833Z,47.17
2018-12-10T13:41:37.792Z,44.46
2018-12-10T13:44:06.775Z,43.21
2018-12-10T13:46:35.693Z,43.74
2018-12-10T13:49:04.653Z,41.54
2018-12-10T13:51:33.563Z,41.02
2018-12-10T13:54:02.561Z,41.10
2018-12-10T13:56:31.513Z,41.73
2018-12-10T13:59:00.534Z,40.55
2018-12-10T14:01:29.464Z,40.13
2018-12-10T14:03:58.844Z,39.19
2018-12-10T14:06:27.803Z,39.34
2018-12-10T14:08:56.782Z,39.51
2018-12-10T14:11:25.714Z,39.30
2018-12-10T14:13:54.723Z,40.74
2018-12-10T14:16:23.645Z,41.35
2018-12-10T14:18:52.695Z,40.23
2018-12-10T14:21:21.614Z,40.51
2018-12-10T14:23:50.575Z,40.58
2018-12-10T14:26:19.510Z,41.50
2018-12-10T14:28:48.445Z,40.82
2018-12-10T14:31:17.425Z,42.51
2018-12-10T14:33:46.385Z,40.76
2018-12-10T14:36:15.348Z,40.61
2018-12-10T14:38:44.308Z,41.69
2018-12-10T14:41:13.362Z,42.46
2018-12-10T14:43:42.255Z,41.74
2018-12-10T14:46:11.240Z,43.00
2018-12-10T14:48:40.167Z,44.79
2018-12-10T14:51:09.240Z,46.18
2018-12-10T14:53:38.180Z,45.63
2018-12-10T14:56:07.107Z,46.13
2018-12-10T14:58:36.005Z,46.82
2018-12-10T15:01:04.968Z,47.83
2018-12-10T15:03:33.885Z,47.77
2018-12-10T15:06:02.896Z,47.24
2018-12-10T15:08:31.804Z,47.76
2018-12-10T15:11:00.760Z,47.70
2018-12-10T15:13:29.678Z,48.71
2018-12-10T15:15:58.660Z,50.08
2018-12-10T15:18:27.603Z,50.10
2018-12-10T15:20:56.599Z,50.75
2018-12-10T15:23:25.553Z,50.93
2018-12-10T15:25:54.480Z,51.78
2018-12-10T15:28:23.447Z,52.43
2018-12-10T15:30:52.365Z,54.09
2018-12-10T15:33:21.976Z,56.71
2018-12-10T15:35:50.919Z,58.54
2018-12-10T15:38:19.869Z,60.36
2018-12-10T15:40:48.840Z,63.09
2018-12-10T15:43:17.798Z,65.22
2018-12-10T15:45:46.709Z,68.69
2018-12-10T15:48:15.649Z,69.97
2018-12-10T15:50:44.756Z,71.89
2018-12-10T15:53:14.015Z,71.90
2018-12-10T15:55:43.220Z,71.16
2018-12-10T15:58:12.201Z,71.89
2018-12-10T16:00:41.113Z,71.98
2018-12-10T16:03:10.268Z,69.64
2018-12-10T16:05:39.160Z,71.73
2018-12-10T16:08:08.130Z,70.85
2018-12-10T16:10:37.028Z,71.22
2018-12-10T16:13:06.007Z,71.29
2018-12-10T16:15:34.900Z,69.02
2018-12-10T16:18:03.950Z,70.51
2018-12-10T16:20:32.872Z,70.59
2018-12-10T16:23:01.828Z,71.53
2018-12-10T16:25:30.738Z,72.43
2018-12-10T16:27:59.716Z,71.54
2018-12-10T16:30:28.980Z,70.68
2018-12-10T16:32:58.186Z,72.62
2018-12-10T16:35:27.217Z,73.00
2018-12-10T16:37:56.178Z,72.66
2018-12-10T16:40:25.246Z,70.32
2018-12-10T16:42:56.175Z,70.13
2018-12-10T16:45:25.132Z,69.90
2018-12-10T16:47:54.079Z,71.50
2018-12-10T16:50:23.328Z,70.32
2018-12-10T16:52:52.256Z,69.36
2018-12-10T16:55:21.180Z,70.72
2018-12-10T16:57:50.116Z,70.69
2018-12-10T17:00:19.140Z,69.10
2018-12-10T17:02:48.086Z,70.72
2018-12-10T17:05:17.050Z,69.85
2018-12-10T17:07:46.518Z,71.14
2018-12-10T17:10:15.475Z,70.37
2018-12-10T17:12:44.540Z,69.50
2018-12-10T17:15:13.557Z,69.98
2018-12-10T17:17:42.568Z,69.66
2018-12-10T17:20:11.528Z,70.80
2018-12-10T17:22:40.446Z,69.84
2018-12-10T17:25:09.703Z,69.19
2018-12-10T17:27:38.621Z,68.75
2018-12-10T17:30:08.079Z,67.75
2018-12-10T17:32:36.998Z,67.41
2018-12-10T17:35:06.566Z,67.66
2018-12-10T17:37:35.459Z,68.50
2018-12-10T17:40:04.616Z,68.29
2018-12-10T17:42:33.536Z,67.52
2018-12-10T17:45:02.574Z,68.00
2018-12-10T17:47:31.566Z,67.94
2018-12-10T17:50:00.706Z,67.14
2018-12-10T17:52:29.651Z,67.24
2018-12-10T17:54:59.411Z,67.12
2018-12-10T17:57:28.386Z,66.22
2018-12-10T17:59:57.384Z,66.25
2018-12-10T18:02:26.372Z,67.55
2018-12-10T18:04:55.318Z,67.88
2018-12-10T18:07:24.230Z,67.69
2018-12-10T18:09:53.278Z,68.23
2018-12-10T18:12:22.222Z,68.27
2018-12-10T18:14:51.236Z,68.04
2018-12-10T18:17:24.696Z,67.95
2018-12-10T18:19:53.622Z,67.26
2018-12-10T18:22:22.674Z,67.78
2018-12-10T18:24:51.602Z,67.62
2018-12-10T18:27:20.567Z,68.26
2018-12-10T18:29:49.492Z,67.59
2018-12-10T18:32:18.528Z,67.76
2018-12-10T18:34:47.536Z,66.96
2018-12-10T18:37:20.960Z,66.88
2018-12-10T18:39:49.983Z,66.47
2018-12-10T18:42:19.064Z,65.92
2018-12-10T18:44:48.065Z,66.75
2018-12-10T18:47:17.125Z,67.43
2018-12-10T18:49:46.120Z,66.20
2018-12-10T18:52:15.140Z,66.71
2018-12-10T18:54:44.226Z,67.36
2018-12-10T18:57:13.210Z,67.84
2018-12-10T18:59:42.209Z,68.71
2018-12-10T19:02:11.251Z,68.07
2018-12-10T19:04:40.192Z,69.18
2018-12-10T19:07:09.199Z,68.87
2018-12-10T19:09:38.179Z,68.54
2018-12-10T19:12:07.180Z,68.84
2018-12-10T19:14:36.180Z,68.37
2018-12-10T19:17:05.803Z,68.65
2018-12-10T19:19:35.156Z,68.87
2018-12-10T19:22:04.390Z,68.68
2018-12-10T19:24:33.627Z,68.99
2018-12-10T19:27:02.862Z,68.97
2018-12-10T19:29:32.025Z,68.52
2018-12-10T19:32:01.319Z,68.59
2018-12-10T19:34:33.081Z,68.93
2018-12-10T19:37:02.309Z,68.72
2018-12-10T19:39:31.683Z,68.08
2018-12-10T19:42:01.176Z,67.86
2018-12-10T19:44:30.797Z,67.64
2018-12-10T19:47:00.433Z,67.98
2018-12-10T19:49:29.738Z,67.97
2018-12-10T19:51:59.202Z,68.31
2018-12-10T19:54:29.227Z,68.65
2018-12-10T19:56:58.716Z,68.26
2018-12-10T19:59:27.912Z,68.73
2018-12-10T20:01:57.160Z,68.39
2018-12-10T20:04:26.543Z,68.19
2018-12-10T20:07:00.693Z,68.57
2018-12-10T20:09:30.164Z,69.08
2018-12-10T20:11:59.320Z,68.71
2018-12-10T20:14:28.815Z,68.44
2018-12-10T20:16:58.160Z,69.03
2018-12-10T20:19:27.200Z,68.36
2018-12-10T20:21:56.455Z,67.33
2018-12-10T20:24:25.578Z,67.90
2018-12-10T20:26:54.686Z,68.30
2018-12-10T20:29:24.072Z,67.27
2018-12-10T20:31:53.567Z,68.19
2018-12-10T20:34:22.937Z,68.00
2018-12-10T20:36:52.501Z,67.49
2018-12-10T20:39:21.794Z,67.81
2018-12-10T20:41:50.803Z,67.87
2018-12-10T20:44:20.363Z,67.87
2018-12-10T20:46:49.591Z,68.31
2018-12-10T20:49:18.844Z,68.67
2018-12-10T20:51:48.082Z,68.62
2018-12-10T20:54:17.409Z,68.76
2018-12-10T20:56:46.706Z,68.38
2018-12-10T20:59:16.011Z,67.49
2018-12-10T21:01:45.248Z,68.40
2018-12-10T21:04:14.379Z,67.83
2018-12-10T21:06:43.523Z,68.17
2018-12-10T21:09:12.708Z,68.27
2018-12-10T21:11:41.969Z,68.85
2018-12-10T21:14:11.305Z,68.41
2018-12-10T21:16:40.740Z,68.91
2018-12-10T21:19:09.848Z,68.70
2018-12-10T21:21:39.381Z,68.48
2018-12-10T21:24:08.963Z,67.93
2018-12-10T21:26:38.537Z,67.72
2018-12-10T21:29:07.948Z,67.44
2018-12-10T21:31:37.212Z,67.18
2018-12-10T21:34:06.428Z,67.54
2018-12-10T21:36:35.793Z,67.24
2018-12-10T21:39:07.673Z,67.77
2018-12-10T21:41:36.971Z,67.40
2018-12-10T21:44:06.401Z,67.42
2018-12-10T21:46:35.780Z,66.95
2018-12-10T21:49:04.998Z,66.86
2018-12-10T21:51:34.312Z,67.35
2018-12-10T21:54:03.524Z,67.26
2018-12-10T21:56:33.024Z,67.20
2018-12-10T21:59:02.009Z,66.44
2018-12-10T22:01:31.005Z,66.99
2018-12-10T22:04:00.007Z,68.04
2018-12-10T22:06:28.980Z,68.30
2018-12-10T22:08:57.924Z,67.77
2018-12-10T22:11:26.934Z,67.64
2018-12-10T22:13:55.836Z,68.06
2018-12-10T22:16:25.738Z,68.05
2018-12-10T22:18:54.632Z,68.76
2018-12-10T22:21:23.613Z,68.78
2018-12-10T22:23:52.624Z,68.87
2018-12-10T22:26:21.716Z,68.70
2018-12-10T22:28:51.012Z,68.25
2018-12-10T22:31:20.172Z,68.36
2018-12-10T22:33:49.739Z,68.74
2018-12-10T22:36:18.986Z,68.21
2018-12-10T22:38:48.215Z,67.84
2018-12-10T22:41:18.389Z,67.29
2018-12-10T22:43:47.840Z,67.73
2018-12-10T22:46:17.649Z,68.04
2018-12-10T22:48:47.569Z,68.86
2018-12-10T22:51:16.931Z,69.06
2018-12-10T22:53:46.176Z,69.78
2018-12-10T22:56:15.432Z,70.45
2018-12-10T22:58:44.705Z,69.48
2018-12-10T23:01:13.964Z,69.86
2018-12-10T23:03:43.166Z,69.48
2018-12-10T23:06:12.662Z,69.69
2018-12-10T23:08:42.217Z,69.13
2018-12-10T23:11:11.840Z,68.94
2018-12-10T23:13:41.329Z,68.77
2018-12-10T23:16:10.332Z,68.52
2018-12-10T23:18:39.375Z,67.88
2018-12-10T23:21:08.750Z,68.50
2018-12-10T23:23:37.734Z,68.28
2018-12-10T23:26:06.777Z,68.14
2018-12-10T23:28:35.724Z,68.25
2018-12-10T23:31:04.683Z,67.73
2018-12-10T23:33:33.644Z,67.68
2018-12-10T23:36:02.722Z,66.98
2018-12-10T23:38:31.699Z,67.10
2018-12-10T23:41:00.712Z,67.66
2018-12-10T23:43:29.623Z,67.36
2018-12-10T23:45:58.600Z,68.00
2018-12-10T23:48:27.532Z,67.87
2018-12-10T23:50:56.496Z,68.10
2018-12-10T23:53:25.411Z,68.37
2018-12-10T23:55:54.685Z,68.24
2018-12-10T23:58:23.630Z,68.56
